Time;durP1;ratioP1;P1;durP2;ratioP2;P2;SDS_P1;SDS_P2;PMS_P1;PMS_P2;Temp;Humidity;BMP_temperature;BMP_pressure;BME280_temperature;BME280_humidity;BME280_pressure;Samples;Min_cycle;Max_cycle;Signal;HPM_P1;HPM_P2
2023/08/13 00:02:24;;;;;;;0.70;0.50;;;18.50;59.10;;;;;;6126729;23;20266;-63
2023/08/13 00:04:50;;;;;;;;;;;18.50;59.10;;;;;;6127296;23;20081;-64
2023/08/13 00:07:16;;;;;;;0.32;0.30;;;18.50;58.90;;;;;;6126224;23;20366;-62
2023/08/13 00:09:42;;;;;;;0.30;0.25;;;18.40;59.20;;;;;;6126622;23;20018;-62
2023/08/13 00:12:08;;;;;;;0.32;0.30;;;18.40;59.30;;;;;;6125893;23;20010;-64
2023/08/13 00:14:34;;;;;;;0.45;0.40;;;18.40;59.30;;;;;;6126499;23;20321;-63
2023/08/13 00:17:00;;;;;;;0.88;0.80;;;18.40;59.30;;;;;;6126361;23;20010;-62
2023/08/13 00:19:26;;;;;;;1.35;1.10;;;18.30;59.40;;;;;;6099881;23;20033;-62
2023/08/13 00:21:52;;;;;;;1.52;0.75;;;18.20;59.50;;;;;;6126283;23;20006;-62
2023/08/13 00:24:18;;;;;;;0.20;0.20;;;18.20;59.50;;;;;;6100458;23;20014;-62
2023/08/13 00:26:44;;;;;;;0.28;0.28;;;18.20;59.30;;;;;;6126273;23;20065;-62
2023/08/13 00:29:10;;;;;;;4.18;0.52;;;18.20;59.50;;;;;;6126192;23;20010;-62
2023/08/13 00:31:36;;;;;;;1.30;1.08;;;18.20;59.40;;;;;;6099564;23;20010;-63
2023/08/13 00:34:02;;;;;;;0.68;0.50;;;18.20;59.60;;;;;;6100295;23;20364;-62
2023/08/13 00:36:28;;;;;;;0.45;0.30;;;18.20;59.60;;;;;;6125762;23;20531;-62
2023/08/13 00:38:54;;;;;;;0.73;0.40;;;18.20;59.80;;;;;;6100042;23;20006;-62
2023/08/13 00:41:20;;;;;;;1.83;0.55;;;18.10;59.60;;;;;;6125789;23;20013;-63
2023/08/13 00:43:46;;;;;;;0.50;0.40;;;18.10;59.80;;;;;;6126304;23;20352;-63
2023/08/13 00:46:13;;;;;;;1.15;0.73;;;18.10;60.10;;;;;;6099605;23;20017;-62
2023/08/13 00:48:40;;;;;;;0.10;0.10;;;18.10;59.90;;;;;;6100163;23;20010;-63
2023/08/13 00:51:09;;;;;;;0.25;0.22;;;17.90;60.10;;;;;;6099940;23;20040;-62
2023/08/13 00:53:45;;;;;;;0.20;0.20;;;18.00;60.30;;;;;;6126141;23;20119;-63
2023/08/13 00:56:14;;;;;;;0.30;0.22;;;17.90;60.30;;;;;;6099824;23;20041;-62
2023/08/13 00:58:42;;;;;;;0.40;0.40;;;17.90;60.70;;;;;;6126003;23;20014;-63
2023/08/13 01:01:09;;;;;;;0.63;0.63;;;17.90;60.50;;;;;;6075349;23;20096;-63
2023/08/13 01:03:36;;;;;;;0.30;0.30;;;17.80;60.40;;;;;;6100079;23;20010;-62
2023/08/13 01:07:01;;;;;;;0.93;0.77;;;17.80;60.70;;;;;;6099788;23;20089;-63
2023/08/13 01:10:23;;;;;;;1.25;0.60;;;17.80;60.50;;;;;;6125889;23;20018;-63
2023/08/13 01:13:47;;;;;;;0.47;0.32;;;17.80;60.60;;;;;;6126404;23;20332;-63
2023/08/13 01:16:15;;;;;;;0.38;0.30;;;17.70;60.50;;;;;;6099199;23;20503;-61
2023/08/13 01:18:43;;;;;;;0.20;0.20;;;17.70;60.90;;;;;;6099946;23;20049;-62
2023/08/13 01:21:09;;;;;;;0.28;0.17;;;17.60;61.00;;;;;;6125105;23;20085;-62
2023/08/13 01:23:35;;;;;;;0.22;0.20;;;17.60;61.20;;;;;;6099762;23;20322;-62
2023/08/13 01:26:26;;;;;;;0.35;0.32;;;17.50;61.40;;;;;;6125336;23;20049;-62
2023/08/13 01:29:49;;;;;;;0.10;0.10;;;17.60;61.40;;;;;;6099900;23;20021;-61
2023/08/13 01:32:20;;;;;;;0.13;0.13;;;17.50;61.30;;;;;;6125601;23;20081;-62
2023/08/13 01:34:49;;;;;;;0.85;0.65;;;17.50;61.70;;;;;;6100481;23;20018;-62
2023/08/13 01:37:17;;;;;;;0.63;0.40;;;17.40;61.70;;;;;;6099139;23;20018;-62
2023/08/13 01:39:43;;;;;;;0.28;0.17;;;17.40;61.10;;;;;;6125600;23;20010;-62
2023/08/13 01:42:11;;;;;;;0.43;0.38;;;17.40;61.80;;;;;;6124928;23;20010;-61
2023/08/13 01:44:37;;;;;;;0.60;0.50;;;17.40;61.90;;;;;;6125632;23;20014;-62
2023/08/13 01:47:04;;;;;;;0.20;0.20;;;17.30;61.30;;;;;;6125484;23;20013;-61
2023/08/13 01:49:32;;;;;;;0.55;0.22;;;17.30;61.50;;;;;;6099654;23;20102;-62
2023/08/13 01:51:58;;;;;;;0.30;0.30;;;17.30;62.00;;;;;;6099412;23;20085;-62
2023/08/13 01:54:24;;;;;;;0.52;0.50;;;17.30;62.00;;;;;;6125617;23;20010;-63
2023/08/13 01:56:50;;;;;;;;;;;17.20;62.20;;;;;;6126000;23;20009;-63
2023/08/13 01:59:17;;;;;;;0.50;0.40;;;17.20;61.90;;;;;;6125895;23;19919;-62
2023/08/13 02:01:43;;;;;;;0.80;0.80;;;17.20;62.00;;;;;;6099318;23;20089;-61
2023/08/13 02:04:09;;;;;;;0.47;0.30;;;17.20;62.10;;;;;;6125570;23;20010;-62
2023/08/13 02:06:36;;;;;;;0.10;0.10;;;17.20;62.20;;;;;;6125192;23;20069;-62
2023/08/13 02:09:03;;;;;;;0.63;0.50;;;17.20;61.90;;;;;;6125450;23;20041;-61
2023/08/13 02:11:29;;;;;;;0.43;0.30;;;17.10;61.90;;;;;;6099055;23;20014;-62
2023/08/13 02:13:55;;;;;;;0.28;0.28;;;17.20;62.10;;;;;;6125813;23;20339;-62
2023/08/13 02:16:21;;;;;;;;;;;17.20;62.00;;;;;;6125697;23;20046;-62
2023/08/13 02:18:47;;;;;;;1.08;0.82;;;17.10;62.00;;;;;;6125544;23;20294;-61
2023/08/13 02:21:13;;;;;;;1.65;0.70;;;17.10;62.10;;;;;;6098788;23;20205;-62
2023/08/13 02:23:39;;;;;;;;;;;17.00;61.50;;;;;;6126065;23;20014;-62
2023/08/13 02:26:05;;;;;;;1.95;0.30;;;17.10;62.40;;;;;;6124983;23;20367;-62
2023/08/13 02:28:31;;;;;;;0.20;0.20;;;17.00;62.40;;;;;;6125541;23;20381;-62
2023/08/13 02:30:57;;;;;;;1.10;0.95;;;17.00;62.70;;;;;;6124746;23;20068;-62
2023/08/13 02:33:23;;;;;;;0.20;0.20;;;17.00;62.60;;;;;;6099630;23;20344;-62
2023/08/13 02:35:49;;;;;;;1.38;0.80;;;16.90;62.80;;;;;;6124970;23;20024;-62
2023/08/13 02:38:15;;;;;;;0.10;0.10;;;16.90;62.70;;;;;;6125347;23;20018;-62
2023/08/13 02:40:41;;;;;;;0.20;0.20;;;16.90;62.50;;;;;;6124716;23;20018;-62
2023/08/13 02:43:07;;;;;;;0.88;0.32;;;16.80;62.70;;;;;;6099658;23;20098;-61
2023/08/13 02:45:33;;;;;;;0.60;0.20;;;16.80;63.90;;;;;;6099045;23;20014;-62
2023/08/13 02:47:59;;;;;;;0.38;0.30;;;16.80;62.70;;;;;;6125353;23;20014;-61
2023/08/13 02:50:25;;;;;;;0.45;0.43;;;16.70;63.30;;;;;;6074858;23;20014;-62
2023/08/13 02:52:52;;;;;;;0.85;0.50;;;16.70;62.40;;;;;;6125578;23;20053;-62
2023/08/13 02:55:18;;;;;;;0.47;0.32;;;16.60;62.10;;;;;;6126331;23;20022;-62
2023/08/13 02:57:44;;;;;;;1.45;0.35;;;16.50;62.20;;;;;;6127639;23;20037;-62
2023/08/13 03:00:11;;;;;;;1.55;0.82;;;16.40;62.20;;;;;;6126572;23;20269;-62
2023/08/13 03:02:37;;;;;;;0.20;0.20;;;16.30;62.30;;;;;;6101460;23;20017;-62
2023/08/13 03:05:03;;;;;;;0.30;0.20;;;16.20;62.50;;;;;;6127122;23;20014;-62
2023/08/13 03:07:29;;;;;;;0.35;0.35;;;16.10;62.40;;;;;;6127013;23;20017;-62
2023/08/13 03:09:55;;;;;;;0.30;0.20;;;16.10;62.90;;;;;;6127080;23;20020;-63
2023/08/13 03:12:21;;;;;;;0.25;0.22;;;16.10;62.70;;;;;;6126437;23;20018;-62
2023/08/13 03:14:48;;;;;;;0.35;0.20;;;16.10;62.80;;;;;;6127154;23;20022;-61
2023/08/13 03:17:14;;;;;;;;;;;16.10;62.80;;;;;;6101456;23;20022;-61
2023/08/13 03:19:40;;;;;;;0.35;0.32;;;16.00;62.40;;;;;;6100609;23;20370;-62
2023/08/13 03:22:06;;;;;;;0.10;0.10;;;16.00;63.20;;;;;;6126778;23;20408;-62
2023/08/13 03:24:32;;;;;;;0.50;0.30;;;16.10;63.10;;;;;;6126864;23;20040;-62
2023/08/13 03:26:58;;;;;;;0.60;0.25;;;16.10;63.10;;;;;;6126754;23;20085;-61
2023/08/13 03:29:24;;;;;;;0.50;0.40;;;16.10;62.80;;;;;;6126608;23;20014;-61
2023/08/13 03:31:50;;;;;;;0.50;0.50;;;16.10;63.20;;;;;;6126730;23;20080;-61
2023/08/13 03:34:16;;;;;;;1.30;0.55;;;16.10;63.00;;;;;;6126875;23;20018;-61
2023/08/13 03:36:42;;;;;;;0.10;0.10;;;16.20;62.80;;;;;;6126506;23;20014;-62
2023/08/13 03:39:08;;;;;;;0.65;0.35;;;16.20;63.00;;;;;;6126653;23;20061;-62
2023/08/13 03:41:34;;;;;;;0.20;0.20;;;16.20;62.80;;;;;;6126376;23;20018;-62
2023/08/13 03:44:00;;;;;;;0.47;0.32;;;16.10;63.00;;;;;;6101009;23;20383;-62
2023/08/13 03:46:26;;;;;;;0.22;0.22;;;16.10;63.10;;;;;;6126079;23;20068;-62
2023/08/13 03:48:52;;;;;;;0.80;0.55;;;16.00;63.30;;;;;;6127052;23;20347;-61
2023/08/13 03:51:18;;;;;;;0.57;0.22;;;16.00;63.10;;;;;;6126487;23;20014;-61
2023/08/13 03:53:44;;;;;;;0.85;0.40;;;16.10;63.20;;;;;;6126721;23;20018;-62
2023/08/13 03:56:10;;;;;;;0.55;0.30;;;16.20;63.10;;;;;;6076008;23;20028;-62
2023/08/13 03:58:38;;;;;;;;;;;16.20;63.10;;;;;;6127347;23;20081;-62
2023/08/13 04:01:24;;;;;;;0.50;0.28;;;16.20;62.80;;;;;;6125791;23;19942;-62
2023/08/13 04:03:50;;;;;;;2.00;0.73;;;16.20;63.20;;;;;;6126780;23;20313;-62
2023/08/13 04:06:16;;;;;;;4.28;1.52;;;16.20;63.20;;;;;;6100014;23;20048;-62
2023/08/13 04:08:42;;;;;;;0.30;0.30;;;16.30;63.30;;;;;;6100640;23;20025;-61
2023/08/13 04:11:08;;;;;;;0.73;0.50;;;16.30;63.50;;;;;;6126040;23;20313;-62
2023/08/13 04:13:34;;;;;;;0.20;0.20;;;16.30;63.50;;;;;;6100424;23;20024;-61
2023/08/13 04:16:00;;;;;;;0.47;0.22;;;16.30;63.50;;;;;;6100055;23;20014;-61
2023/08/13 04:18:26;;;;;;;1.48;0.40;;;16.40;63.60;;;;;;6126401;23;20014;-61
2023/08/13 04:20:52;;;;;;;0.47;0.40;;;16.50;63.50;;;;;;6099318;23;20097;-61
2023/08/13 04:23:18;;;;;;;0.52;0.35;;;16.50;63.90;;;;;;6100516;23;20459;-61
2023/08/13 04:25:44;;;;;;;0.45;0.30;;;16.50;63.90;;;;;;6125876;23;20451;-62
2023/08/13 04:28:10;;;;;;;0.35;0.20;;;16.60;63.90;;;;;;6126324;23;20010;-61
2023/08/13 04:30:36;;;;;;;0.95;0.50;;;16.60;64.10;;;;;;6125589;23;20010;-62
2023/08/13 04:33:02;;;;;;;0.80;0.40;;;16.70;65.20;;;;;;6126233;23;20022;-62
2023/08/13 04:35:28;;;;;;;0.60;0.45;;;16.70;64.70;;;;;;6099754;23;20025;-61
2023/08/13 04:37:54;;;;;;;;;;;16.80;64.20;;;;;;6126646;23;20010;-62
2023/08/13 04:40:20;;;;;;;0.17;0.17;;;16.80;64.50;;;;;;6148719;23;19988;-62
2023/08/13 04:42:46;;;;;;;1.48;1.00;;;16.80;64.60;;;;;;6126793;23;20438;-62
2023/08/13 04:45:13;;;;;;;0.30;0.22;;;16.80;64.90;;;;;;6125708;23;20049;-62
2023/08/13 04:47:39;;;;;;;;;;;16.90;64.70;;;;;;6101155;23;20014;-61
2023/08/13 04:50:25;;;;;;;0.25;0.20;;;16.90;64.50;;;;;;6125591;23;19959;-62
2023/08/13 04:52:51;;;;;;;0.63;0.40;;;17.00;64.60;;;;;;6126731;23;20010;-61
2023/08/13 04:55:17;;;;;;;0.47;0.30;;;17.00;64.60;;;;;;6125539;23;20018;-61
2023/08/13 04:57:43;;;;;;;0.30;0.30;;;17.00;64.60;;;;;;6126689;23;20010;-62
2023/08/13 05:00:10;;;;;;;0.82;0.30;;;17.00;64.80;;;;;;6125169;23;20056;-62
2023/08/13 05:02:36;;;;;;;0.47;0.20;;;17.00;64.70;;;;;;6100364;23;20014;-62
2023/08/13 05:05:03;;;;;;;0.85;0.50;;;17.00;65.00;;;;;;6125893;23;20170;-62
2023/08/13 05:07:29;;;;;;;0.32;0.30;;;17.00;64.70;;;;;;6075757;23;20029;-62
2023/08/13 05:09:55;;;;;;;0.65;0.50;;;17.00;65.40;;;;;;6099998;23;20029;-62
2023/08/13 05:12:21;;;;;;;0.32;0.25;;;17.10;65.50;;;;;;6125406;23;20017;-62
2023/08/13 05:14:47;;;;;;;0.30;0.20;;;17.10;65.60;;;;;;6125999;23;20018;-62
2023/08/13 05:17:34;;;;;;;1.27;0.52;;;17.00;65.50;;;;;;6125339;23;20020;-62
2023/08/13 05:20:00;;;;;;;0.10;0.10;;;17.10;65.50;;;;;;6099959;23;20022;-62
2023/08/13 05:22:26;;;;;;;0.65;0.30;;;17.10;65.60;;;;;;6125714;23;20021;-61
2023/08/13 05:24:52;;;;;;;0.10;0.10;;;17.00;65.60;;;;;;6100017;23;20384;-61
2023/08/13 05:27:18;;;;;;;0.13;0.13;;;17.00;65.60;;;;;;6125730;23;20081;-62
2023/08/13 05:29:44;;;;;;;0.63;0.55;;;17.10;66.00;;;;;;6125708;23;20076;-61
2023/08/13 05:32:10;;;;;;;0.95;0.85;;;17.10;66.00;;;;;;6125648;23;20017;-61
2023/08/13 05:34:36;;;;;;;0.43;0.20;;;17.10;66.10;;;;;;6099755;23;20304;-61
2023/08/13 05:37:02;;;;;;;0.65;0.30;;;17.10;66.00;;;;;;6125129;23;20014;-62
2023/08/13 05:39:28;;;;;;;0.40;0.15;;;17.20;65.80;;;;;;6125719;23;20010;-61
2023/08/13 05:41:54;;;;;;;0.45;0.40;;;17.20;65.70;;;;;;6099484;23;20305;-62
2023/08/13 05:44:20;;;;;;;0.20;0.20;;;17.30;66.00;;;;;;6099916;23;20057;-61
2023/08/13 05:46:46;;;;;;;0.30;0.20;;;17.30;66.50;;;;;;6099315;23;20014;-61
2023/08/13 05:49:12;;;;;;;0.95;0.47;;;17.40;66.00;;;;;;6099569;23;20035;-61
2023/08/13 05:51:38;;;;;;;0.47;0.38;;;17.60;65.80;;;;;;6125392;23;20033;-61
2023/08/13 05:54:05;;;;;;;0.60;0.47;;;17.60;65.70;;;;;;6126033;23;20067;-61
2023/08/13 05:56:31;;;;;;;0.10;0.10;;;17.70;65.80;;;;;;6099341;23;20439;-61
2023/08/13 05:58:57;;;;;;;0.55;0.43;;;17.80;65.40;;;;;;6125516;23;20014;-62
2023/08/13 06:01:23;;;;;;;0.75;0.57;;;17.90;65.70;;;;;;6124687;23;20013;-62
2023/08/13 06:03:49;;;;;;;1.00;0.30;;;18.10;65.30;;;;;;6125692;23;20018;-61
2023/08/13 06:06:15;;;;;;;;;;;18.20;65.20;;;;;;6125783;23;20331;-62
2023/08/13 06:08:41;;;;;;;0.20;0.20;;;18.20;65.30;;;;;;6123827;23;19928;-62
2023/08/13 06:11:07;;;;;;;0.70;0.60;;;18.20;65.40;;;;;;6098763;23;20033;-61
2023/08/13 06:13:38;;;;;;;0.75;0.30;;;18.30;65.30;;;;;;6125533;23;20048;-61
2023/08/13 06:16:06;;;;;;;0.32;0.30;;;18.30;65.50;;;;;;6125215;23;20053;-61
2023/08/13 06:18:34;;;;;;;0.35;0.22;;;18.30;65.20;;;;;;6099660;23;20017;-62
2023/08/13 06:21:00;;;;;;;0.85;0.50;;;18.40;65.40;;;;;;6076887;23;20018;-61
2023/08/13 06:23:26;;;;;;;0.65;0.40;;;18.50;65.30;;;;;;6070826;23;20030;-62
2023/08/13 06:25:52;;;;;;;0.50;0.45;;;18.60;65.20;;;;;;6095935;23;20034;-61
2023/08/13 06:28:18;;;;;;;0.68;0.30;;;18.70;65.00;;;;;;6096891;23;20022;-62
2023/08/13 06:30:44;;;;;;;1.42;0.77;;;18.80;65.30;;;;;;6097602;23;20018;-61
2023/08/13 06:33:11;;;;;;;0.43;0.30;;;18.80;65.70;;;;;;6098040;23;20061;-61
2023/08/13 06:35:37;;;;;;;0.20;0.20;;;18.90;65.30;;;;;;6072122;23;20083;-61
2023/08/13 06:38:03;;;;;;;0.30;0.30;;;19.00;65.80;;;;;;6072633;23;20093;-62
2023/08/13 06:40:32;;;;;;;0.65;0.38;;;19.00;66.00;;;;;;6097267;23;20021;-62
2023/08/13 06:42:58;;;;;;;0.30;0.30;;;19.10;65.90;;;;;;6072667;23;20097;-63
2023/08/13 06:45:26;;;;;;;0.28;0.28;;;19.20;65.80;;;;;;6097576;23;20340;-63
2023/08/13 06:47:53;;;;;;;0.10;0.10;;;19.30;66.00;;;;;;6098239;23;20081;-63
2023/08/13 06:50:19;;;;;;;0.45;0.30;;;19.40;65.40;;;;;;6097369;23;20093;-62
2023/08/13 06:52:45;;;;;;;0.28;0.28;;;19.40;65.30;;;;;;6072837;23;20010;-63
2023/08/13 06:55:12;;;;;;;0.40;0.40;;;19.50;64.90;;;;;;6097449;23;20019;-61
2023/08/13 06:57:37;;;;;;;;;;;19.70;64.60;;;;;;6073235;23;20018;-62
2023/08/13 07:00:05;;;;;;;0.60;0.50;;;19.90;64.20;;;;;;6120559;23;19920;-61
2023/08/13 07:02:31;;;;;;;0.20;0.20;;;20.10;63.50;;;;;;6048363;23;20025;-63
2023/08/13 07:04:57;;;;;;;;;;;20.20;63.10;;;;;;6098610;23;20074;-62
2023/08/13 07:07:23;;;;;;;0.20;0.17;;;20.50;63.10;;;;;;6071918;23;19912;-63
2023/08/13 07:09:49;;;;;;;0.30;0.30;;;20.80;62.40;;;;;;6072331;23;20017;-62
2023/08/13 07:12:15;;;;;;;1.25;0.73;;;21.10;62.00;;;;;;6097039;23;20100;-63
2023/08/13 07:14:42;;;;;;;1.13;0.57;;;21.40;61.60;;;;;;6097875;23;20087;-62
2023/08/13 07:17:08;;;;;;;0.63;0.60;;;21.70;60.70;;;;;;6048043;23;20018;-63
2023/08/13 07:19:34;;;;;;;;;;;21.90;60.20;;;;;;6075837;23;20025;-62
2023/08/13 07:22:00;;;;;;;0.60;0.38;;;22.20;61.30;;;;;;6124725;23;20209;-63
2023/08/13 07:24:26;;;;;;;0.20;0.20;;;22.50;59.60;;;;;;6100928;23;20010;-64
2023/08/13 07:26:52;;;;;;;;;;;22.80;59.40;;;;;;6127314;23;20009;-63
2023/08/13 07:29:18;;;;;;;0.45;0.30;;;23.10;60.30;;;;;;6126681;23;19924;-61
2023/08/13 07:31:44;;;;;;;;;;;23.40;58.10;;;;;;6127266;23;20057;-62
2023/08/13 07:34:10;;;;;;;0.95;0.47;;;23.70;59.20;;;;;;6100798;23;19913;-64
2023/08/13 07:36:36;;;;;;;0.25;0.25;;;23.90;57.40;;;;;;6126509;23;20077;-64
2023/08/13 07:39:02;;;;;;;0.70;0.50;;;24.00;56.10;;;;;;6126484;23;20038;-64
2023/08/13 07:41:28;;;;;;;1.10;0.82;;;24.30;56.20;;;;;;6125573;23;20018;-63
2023/08/13 07:43:54;;;;;;;;;;;24.60;55.80;;;;;;6127433;23;20384;-64
2023/08/13 07:46:20;;;;;;;0.30;0.30;;;24.80;55.00;;;;;;6126190;23;19917;-63
2023/08/13 07:48:47;;;;;;;0.30;0.30;;;25.00;54.10;;;;;;6100461;23;20025;-63
2023/08/13 07:51:13;;;;;;;2.38;1.30;;;25.20;53.20;;;;;;6100199;23;20056;-64
2023/08/13 07:53:39;;;;;;;0.57;0.40;;;25.60;52.30;;;;;;6126736;23;20013;-64
2023/08/13 07:56:05;;;;;;;0.20;0.20;;;26.00;50.50;;;;;;6100026;23;20021;-66
2023/08/13 07:58:32;;;;;;;0.88;0.68;;;26.30;49.10;;;;;;6100376;23;20024;-64
2023/08/13 08:00:59;;;;;;;1.42;0.60;;;26.70;47.10;;;;;;6125821;23;20017;-65
2023/08/13 08:03:25;;;;;;;0.17;0.17;;;27.20;46.70;;;;;;6099397;23;20018;-64
2023/08/13 08:05:52;;;;;;;0.85;0.47;;;27.70;44.90;;;;;;6098421;23;20041;-66
2023/08/13 08:08:18;;;;;;;0.55;0.43;;;28.10;44.30;;;;;;6100214;23;20390;-66
2023/08/13 08:10:44;;;;;;;0.30;0.30;;;28.60;42.40;;;;;;6100133;23;20459;-64
2023/08/13 08:13:10;;;;;;;0.28;0.28;;;29.30;42.80;;;;;;6126362;23;20010;-64
2023/08/13 08:15:36;;;;;;;0.30;0.30;;;29.90;41.60;;;;;;6125796;23;20014;-67
2023/08/13 08:18:03;;;;;;;1.33;0.60;;;30.60;41.00;;;;;;6100472;23;20014;-67
2023/08/13 08:20:29;;;;;;;1.17;0.57;;;31.10;38.20;;;;;;6125475;23;20432;-67
2023/08/13 08:22:55;;;;;;;0.60;0.50;;;31.70;36.00;;;;;;6126326;23;20014;-68
2023/08/13 08:25:21;;;;;;;0.32;0.30;;;32.20;36.00;;;;;;6125831;23;20020;-69
2023/08/13 08:27:47;;;;;;;0.47;0.45;;;32.70;34.20;;;;;;6100785;23;20260;-67
2023/08/13 08:30:13;;;;;;;0.50;0.50;;;33.10;33.60;;;;;;6125558;23;20069;-67
2023/08/13 08:32:39;;;;;;;0.95;0.55;;;33.70;32.10;;;;;;6126727;23;20044;-66
2023/08/13 08:35:06;;;;;;;1.15;0.85;;;34.40;31.10;;;;;;6100171;23;20038;-68
2023/08/13 08:37:33;;;;;;;0.40;0.40;;;34.90;29.20;;;;;;6126398;23;20330;-68
2023/08/13 08:39:59;;;;;;;0.40;0.40;;;35.10;29.20;;;;;;6100226;23;20112;-68
2023/08/13 08:42:26;;;;;;;0.90;0.60;;;35.70;28.40;;;;;;6126108;23;20125;-68
2023/08/13 08:44:53;;;;;;;0.50;0.40;;;36.00;27.60;;;;;;6100133;23;20022;-67
2023/08/13 08:47:21;;;;;;;0.32;0.32;;;36.50;27.60;;;;;;6126079;23;20006;-68
2023/08/13 08:49:51;;;;;;;0.50;0.50;;;37.20;27.60;;;;;;6100157;23;20101;-68
2023/08/13 08:52:18;;;;;;;0.40;0.40;;;37.80;26.20;;;;;;6099443;23;20006;-68
2023/08/13 08:54:46;;;;;;;0.50;0.50;;;38.10;25.70;;;;;;6100206;23;20014;-68
2023/08/13 08:57:12;;;;;;;1.60;0.63;;;38.40;25.00;;;;;;6075486;23;20018;-68
2023/08/13 08:59:38;;;;;;;1.00;0.70;;;39.00;24.30;;;;;;6125940;23;20022;-68
2023/08/13 09:02:05;;;;;;;0.93;0.70;;;39.40;23.60;;;;;;6125610;23;20340;-68
2023/08/13 09:04:31;;;;;;;0.50;0.50;;;39.70;22.90;;;;;;6100114;23;20048;-67
2023/08/13 09:07:16;;;;;;;0.60;0.60;;;40.10;22.70;;;;;;6125424;23;20069;-68
2023/08/13 09:09:46;;;;;;;1.88;0.82;;;40.80;21.80;;;;;;6126098;23;20072;-69
2023/08/13 09:12:13;;;;;;;0.30;0.30;;;41.00;22.00;;;;;;6100072;23;20009;-68
2023/08/13 09:14:39;;;;;;;0.82;0.60;;;41.50;22.00;;;;;;6125767;23;20341;-68
2023/08/13 09:17:06;;;;;;;0.80;0.70;;;41.90;21.40;;;;;;6098091;23;20010;-67
2023/08/13 09:19:33;;;;;;;0.70;0.63;;;42.30;21.00;;;;;;6098494;23;20025;-67
2023/08/13 09:22:01;;;;;;;0.70;0.70;;;42.60;20.10;;;;;;6125437;23;20327;-67
2023/08/13 09:24:48;;;;;;;0.45;0.45;;;42.90;20.10;;;;;;6125722;23;20014;-69
2023/08/13 09:27:14;;;;;;;0.50;0.50;;;43.60;19.70;;;;;;6125686;23;20010;-68
2023/08/13 09:29:41;;;;;;;0.75;0.68;;;43.90;18.50;;;;;;6099675;23;20010;-67
2023/08/13 09:32:07;;;;;;;0.60;0.60;;;44.10;18.80;;;;;;6125640;23;20017;-67
2023/08/13 09:34:34;;;;;;;0.55;0.55;;;44.60;17.50;;;;;;6126078;23;20025;-67
2023/08/13 09:37:00;;;;;;;1.00;0.80;;;45.00;17.20;;;;;;6099443;23;20344;-69
2023/08/13 09:39:28;;;;;;;0.65;0.65;;;45.50;17.10;;;;;;6125669;23;20014;-67
2023/08/13 09:41:55;;;;;;;1.05;0.98;;;45.90;16.80;;;;;;6099479;23;20010;-67
2023/08/13 09:44:26;;;;;;;0.75;0.75;;;46.40;15.70;;;;;;6099924;23;20114;-68
2023/08/13 09:46:55;;;;;;;0.77;0.77;;;46.40;16.00;;;;;;6125487;23;20014;-67
2023/08/13 09:49:41;;;;;;;1.30;1.20;;;46.60;16.10;;;;;;6099685;23;20041;-66
2023/08/13 09:52:11;;;;;;;1.33;1.10;;;47.20;16.40;;;;;;6099426;23;20014;-68
2023/08/13 09:55:15;;;;;;;1.33;1.17;;;47.50;15.10;;;;;;6098915;23;20025;-66
2023/08/13 09:57:43;;;;;;;1.17;1.05;;;47.70;14.70;;;;;;6126236;23;20021;-68
2023/08/13 10:00:12;;;;;;;1.15;1.00;;;48.30;14.20;;;;;;6099046;23;20373;-67
2023/08/13 10:02:59;;;;;;;1.10;1.00;;;48.60;13.00;;;;;;6125799;23;20384;-68
2023/08/13 10:05:25;;;;;;;1.20;1.08;;;48.80;13.30;;;;;;6099087;23;20088;-69
2023/08/13 10:07:52;;;;;;;0.90;0.90;;;49.30;13.40;;;;;;6098317;23;20010;-66
2023/08/13 10:10:18;;;;;;;1.30;1.20;;;49.70;13.40;;;;;;6075131;23;20042;-68
2023/08/13 10:12:45;;;;;;;1.95;1.75;;;49.70;13.00;;;;;;6099889;23;20014;-67
2023/08/13 10:15:12;;;;;;;2.63;1.85;;;49.80;12.60;;;;;;6124872;23;20014;-68
2023/08/13 10:17:38;;;;;;;1.50;1.38;;;49.90;12.80;;;;;;6099781;23;20041;-68
2023/08/13 10:20:07;;;;;;;1.90;1.75;;;50.20;12.50;;;;;;6124671;23;20475;-66
2023/08/13 10:22:53;;;;;;;1.85;1.65;;;50.40;11.70;;;;;;6099488;23;20018;-68
2023/08/13 10:25:39;;;;;;;1.17;1.08;;;50.50;11.30;;;;;;6124890;23;20017;-68
2023/08/13 10:28:27;;;;;;;2.40;1.75;;;50.80;11.40;;;;;;6099511;23;20025;-66
2023/08/13 10:31:31;;;;;;;2.00;1.70;;;51.10;10.70;;;;;;6074716;23;20021;-69
2023/08/13 10:34:18;;;;;;;1.63;1.50;;;51.20;10.80;;;;;;6099523;23;20025;-66
2023/08/13 10:37:04;;;;;;;1.75;1.63;;;51.60;10.40;;;;;;6099060;23;20009;-69
2023/08/13 10:40:12;;;;;;;2.20;2.00;;;51.80;10.30;;;;;;6075311;23;20061;-67
2023/08/13 10:43:16;;;;;;;2.30;2.10;;;52.40;9.70;;;;;;6100807;23;20006;-67
2023/08/13 10:45:42;;;;;;;1.80;1.60;;;52.50;9.80;;;;;;6124709;23;20083;-69
2023/08/13 10:48:08;;;;;;;9.02;2.30;;;52.80;10.50;;;;;;6125129;23;20014;-67
2023/08/13 10:50:54;;;;;;;2.17;1.92;;;53.20;10.50;;;;;;6124607;23;20014;-66
2023/08/13 10:53:25;;;;;;;2.88;2.28;;;53.70;10.10;;;;;;6074614;23;20025;-69
2023/08/13 10:56:14;;;;;;;3.00;2.60;;;53.80;9.60;;;;;;6099018;23;20061;-67
2023/08/13 10:58:40;;;;;;;2.58;2.38;;;54.20;9.50;;;;;;6125424;23;20041;-68
2023/08/13 11:01:25;;;;;;;2.40;2.20;;;54.20;9.60;;;;;;6098259;23;20025;-69
2023/08/13 11:04:09;;;;;;;3.58;3.17;;;54.20;9.50;;;;;;6124601;23;20024;-67
2023/08/13 11:06:35;;;;;;;;;;;54.40;9.70;;;;;;6125372;23;20416;-67
2023/08/13 11:09:07;;;;;;;2.63;2.35;;;54.80;8.80;;;;;;6148158;23;19921;-67
2023/08/13 11:11:33;;;;;;;3.22;2.92;;;54.80;9.00;;;;;;6125038;23;20010;-69
2023/08/13 11:13:59;;;;;;;3.55;3.25;;;55.10;9.20;;;;;;6125296;23;20475;-66
2023/08/13 11:16:47;;;;;;;3.63;3.33;;;55.50;8.70;;;;;;6100316;23;20021;-67
2023/08/13 11:19:13;;;;;;;3.28;2.97;;;55.60;8.50;;;;;;6100769;23;20022;-66
2023/08/13 11:21:39;;;;;;;3.15;2.85;;;55.70;8.70;;;;;;6100581;23;20014;-69
2023/08/13 11:24:10;;;;;;;3.88;3.50;;;55.90;8.40;;;;;;6101201;23;20384;-66
2023/08/13 11:26:37;;;;;;;3.42;3.13;;;56.20;8.80;;;;;;6100453;23;20380;-67
2023/08/13 11:29:03;;;;;;;3.40;3.10;;;56.30;8.70;;;;;;6126827;23;20010;-67
2023/08/13 11:31:29;;;;;;;3.63;3.33;;;56.50;8.70;;;;;;6100545;23;20061;-68
2023/08/13 11:33:56;;;;;;;3.92;3.60;;;56.80;8.70;;;;;;6101038;23;20036;-68
2023/08/13 11:36:23;;;;;;;4.00;3.60;;;56.80;8.60;;;;;;6126395;23;20022;-68
2023/08/13 11:38:50;;;;;;;3.42;3.10;;;56.80;8.50;;;;;;6126496;23;20344;-68
2023/08/13 11:41:16;;;;;;;5.25;4.22;;;56.90;8.50;;;;;;6100297;23;20391;-68
2023/08/13 11:43:43;;;;;;;4.72;4.32;;;57.30;8.60;;;;;;6126674;23;20040;-67
2023/08/13 11:46:09;;;;;;;4.45;4.05;;;57.50;7.60;;;;;;6126141;23;20014;-67
2023/08/13 11:48:37;;;;;;;4.53;4.13;;;57.30;8.00;;;;;;6126165;23;20010;-67
2023/08/13 11:51:25;;;;;;;4.55;4.15;;;57.40;8.30;;;;;;6125894;23;20014;-67
2023/08/13 11:53:51;;;;;;;4.57;4.18;;;57.80;8.10;;;;;;6101523;23;20020;-68
2023/08/13 11:56:19;;;;;;;5.05;4.65;;;57.70;8.30;;;;;;6126262;23;20006;-67
2023/08/13 11:58:45;;;;;;;5.30;4.90;;;57.90;8.20;;;;;;6126668;23;20025;-66
2023/08/13 12:01:13;;;;;;;5.05;4.65;;;58.20;8.20;;;;;;6125969;23;20446;-68
2023/08/13 12:04:03;;;;;;;4.93;4.53;;;58.10;8.20;;;;;;6100601;23;20014;-66
2023/08/13 12:06:30;;;;;;;5.05;4.65;;;58.00;8.50;;;;;;6100227;23;20024;-68
2023/08/13 12:08:59;;;;;;;5.43;5.03;;;57.50;8.00;;;;;;6100771;23;20029;-67
2023/08/13 12:11:25;;;;;;;5.00;4.60;;;57.40;8.60;;;;;;6100157;23;20045;-66
2023/08/13 12:13:51;;;;;;;3.83;3.53;;;57.50;8.70;;;;;;6126376;23;20030;-67
2023/08/13 12:16:17;;;;;;;4.70;4.30;;;57.70;8.50;;;;;;6100109;23;20042;-67
2023/08/13 12:18:43;;;;;;;5.18;4.78;;;58.10;8.80;;;;;;6125138;23;20018;-67
2023/08/13 12:21:10;;;;;;;4.78;4.38;;;58.20;8.60;;;;;;6123831;23;20013;-68
2023/08/13 12:23:36;;;;;;;5.22;4.82;;;58.50;7.50;;;;;;6124915;23;20065;-66
2023/08/13 12:26:02;;;;;;;5.97;5.57;;;58.60;7.30;;;;;;6099340;23;20463;-66
2023/08/13 12:28:30;;;;;;;5.03;4.63;;;58.30;7.90;;;;;;6099430;23;20017;-66
2023/08/13 12:30:56;;;;;;;4.90;4.50;;;58.90;7.60;;;;;;6125072;23;20014;-67
2023/08/13 12:33:22;;;;;;;6.10;5.63;;;59.20;7.90;;;;;;6125197;23;20041;-68
2023/08/13 12:35:48;;;;;;;5.28;4.88;;;59.80;7.40;;;;;;6099407;23;20048;-67
2023/08/13 12:38:14;;;;;;;5.90;5.47;;;59.50;7.50;;;;;;6099873;23;20010;-67
2023/08/13 12:40:40;;;;;;;6.40;5.90;;;59.70;7.60;;;;;;6125012;23;20463;-68
2023/08/13 12:43:06;;;;;;;6.63;6.13;;;59.70;7.50;;;;;;6125707;23;20014;-68
2023/08/13 12:45:32;;;;;;;5.70;5.30;;;59.80;7.80;;;;;;6124735;23;20054;-67
2023/08/13 12:47:59;;;;;;;6.68;6.18;;;59.90;7.20;;;;;;6125570;23;20014;-67
2023/08/13 12:50:25;;;;;;;6.97;6.47;;;60.30;7.30;;;;;;6098997;23;20448;-68
2023/08/13 12:52:51;;;;;;;6.93;6.43;;;60.10;7.50;;;;;;6099764;23;20010;-66
2023/08/13 12:55:17;;;;;;;8.50;7.90;;;60.40;7.00;;;;;;6099050;23;20029;-66
2023/08/13 12:57:43;;;;;;;7.82;7.32;;;60.70;7.10;;;;;;6099533;23;20018;-67
2023/08/13 13:00:10;;;;;;;8.35;7.75;;;60.30;7.30;;;;;;6099081;23;20037;-66
2023/08/13 13:02:36;;;;;;;7.18;6.68;;;60.40;6.80;;;;;;6125298;23;20014;-66